Calgary International Airport

CYYC · 艾伯塔, 加拿大

罗盘
风向 的 风向 的 风向 到 风向 190° Calgary International Airport 8/26
风: 3 kt, 1 beaufort

1 kt

3 kt
改变
0 ft 6.000 12.000 18.000 24.000 30.000
Cloud Cloud Cloud Cloud
SCT 23.000
METAR CYYC 091100Z 19003KT 150V210 15SM SCT230 M06/M12 A3018 RMK CI3 SLP277

METAR Calgary International Airport - CYYC/YYC

Calgary International Airport是,加拿大中的大型机场。 该机场有4条跑道: 8/26, 11/29, 17L/35R 和 17R/35L. 该领域的国际民航组织标志是CYYC 它的国际航空运输协会代码是YYC.

这份报告是针对2023年2月9日 04:00, 当地时间在Calgary International Airport进行的。

机场观察

风向为190°,速度为3 kt。 风向在150°和210°之间变化。

可见度为15 mi。

有疏云,零星散落的云朵在23.000 ft的高度。 没有观察到天花板。

温度为-6 °C,阵风为-11 °C。 露点为-12 °C,相对湿度为63%。 海平面上的气压为30,18 inHg (QNH)。

白天

今天,太阳从07:59升起,在17:40降落。 这适用于Calgary International Airport,世界夏令时可能有所不同。 当地时间与世界标准时间之间的时差为-7 小时。 当前,没有夏令时有效。

公司介绍

我们没有关于这个机场的公司信息。

体会

到Vliegles.nl去找飞行课程,跳伞和其他飞行体验。 浏览页面,了解Calgary International Airport附近所有可用的活动。 你也可以使用搜索功能来寻找你所在地附近的特定飞行课程、跳伞或其他飞行体验。

跑道

Id 标题 侧风 逆风 侧风 %
8/26 090°-270° 3 kt 98 %
11/29 120°-300° 3 kt 1 kt 94 %
17L/35R 180°-360° 3 kt 17 %
17R/35L 180°-360° 3 kt 17 %

逆风成分最大的方向会被突出显示,并用于横风计算。 这并不一定意味着这个方向在使用。

乌云

23.000 ft SCT 疏云,零星散落的云朵

温度 & 天气

温度 -6 °C
露点 -12 °C
相对湿度 63%
风寒 -11 °C
Kp-index 3 (0-9)

评论

SLP277海平面压力为30,35 inHg (30,35 inHg)
CI3

白天

日出
07:59 (3:07)
中午
12:50
日落
17:40

小工具

你想在你的网站上有一个关于Calgary International Airport的当前航空天气(METAR)的小部件吗?

显示HTML代码

我们和第三方通过cookies跟踪您在我们网站上的互联网行为。如果你继续,我们认为你同意我们的饼干政策